sensor_id;sensor_type;location;lat;lon;timestamp;P1;durP1;ratioP1;P2;durP2;ratioP2
4885;SDS011;2457;51.788;6.136;2023-07-31T00:00:58;3.80;;;1.10;;
4885;SDS011;2457;51.788;6.136;2023-07-31T00:03:26;3.77;;;1.20;;
4885;SDS011;2457;51.788;6.136;2023-07-31T00:05:53;3.63;;;1.10;;
4885;SDS011;2457;51.788;6.136;2023-07-31T00:08:20;6.13;;;1.30;;
4885;SDS011;2457;51.788;6.136;2023-07-31T00:10:50;3.60;;;0.90;;
4885;SDS011;2457;51.788;6.136;2023-07-31T00:13:17;4.30;;;1.40;;
4885;SDS011;2457;51.788;6.136;2023-07-31T00:15:44;3.90;;;1.10;;
4885;SDS011;2457;51.788;6.136;2023-07-31T00:18:11;3.97;;;1.00;;
4885;SDS011;2457;51.788;6.136;2023-07-31T00:20:38;4.13;;;1.30;;
4885;SDS011;2457;51.788;6.136;2023-07-31T00:23:06;3.73;;;1.07;;
4885;SDS011;2457;51.788;6.136;2023-07-31T00:25:33;4.80;;;1.60;;
4885;SDS011;2457;51.788;6.136;2023-07-31T00:28:00;4.17;;;1.63;;
4885;SDS011;2457;51.788;6.136;2023-07-31T00:30:28;7.50;;;2.50;;
4885;SDS011;2457;51.788;6.136;2023-07-31T00:32:55;8.13;;;2.67;;
4885;SDS011;2457;51.788;6.136;2023-07-31T00:35:22;7.63;;;3.03;;
4885;SDS011;2457;51.788;6.136;2023-07-31T00:37:49;8.57;;;3.00;;
4885;SDS011;2457;51.788;6.136;2023-07-31T00:40:17;12.80;;;3.27;;
4885;SDS011;2457;51.788;6.136;2023-07-31T00:42:44;9.70;;;3.70;;
4885;SDS011;2457;51.788;6.136;2023-07-31T00:45:11;9.70;;;4.03;;
4885;SDS011;2457;51.788;6.136;2023-07-31T00:47:38;11.50;;;4.43;;
4885;SDS011;2457;51.788;6.136;2023-07-31T00:50:07;17.00;;;4.43;;
4885;SDS011;2457;51.788;6.136;2023-07-31T00:52:35;12.83;;;4.17;;
4885;SDS011;2457;51.788;6.136;2023-07-31T00:55:03;15.03;;;4.80;;
4885;SDS011;2457;51.788;6.136;2023-07-31T00:57:31;11.10;;;4.20;;
4885;SDS011;2457;51.788;6.136;2023-07-31T00:59:59;12.70;;;4.27;;
4885;SDS011;2457;51.788;6.136;2023-07-31T01:02:26;12.80;;;4.77;;
4885;SDS011;2457;51.788;6.136;2023-07-31T01:04:54;10.77;;;3.77;;
4885;SDS011;2457;51.788;6.136;2023-07-31T01:07:35;12.10;;;4.00;;
4885;SDS011;2457;51.788;6.136;2023-07-31T01:12:28;10.53;;;3.80;;
4885;SDS011;2457;51.788;6.136;2023-07-31T01:15:04;13.53;;;4.60;;
4885;SDS011;2457;51.788;6.136;2023-07-31T01:17:31;12.03;;;4.00;;
4885;SDS011;2457;51.788;6.136;2023-07-31T01:19:59;14.10;;;4.20;;
4885;SDS011;2457;51.788;6.136;2023-07-31T01:25:10;10.27;;;3.63;;
4885;SDS011;2457;51.788;6.136;2023-07-31T01:27:34;12.10;;;3.97;;
4885;SDS011;2457;51.788;6.136;2023-07-31T01:30:08;9.43;;;3.73;;
4885;SDS011;2457;51.788;6.136;2023-07-31T01:32:36;8.33;;;3.27;;
4885;SDS011;2457;51.788;6.136;2023-07-31T01:35:05;16.33;;;4.20;;
4885;SDS011;2457;51.788;6.136;2023-07-31T01:37:32;10.83;;;3.77;;
4885;SDS011;2457;51.788;6.136;2023-07-31T01:40:00;11.57;;;4.20;;
4885;SDS011;2457;51.788;6.136;2023-07-31T01:42:27;8.40;;;3.60;;
4885;SDS011;2457;51.788;6.136;2023-07-31T01:44:54;9.93;;;3.80;;
4885;SDS011;2457;51.788;6.136;2023-07-31T01:47:21;15.97;;;4.00;;
4885;SDS011;2457;51.788;6.136;2023-07-31T01:49:49;9.70;;;3.77;;
4885;SDS011;2457;51.788;6.136;2023-07-31T01:52:17;11.73;;;3.70;;
4885;SDS011;2457;51.788;6.136;2023-07-31T01:54:44;10.23;;;3.30;;
4885;SDS011;2457;51.788;6.136;2023-07-31T01:57:11;11.97;;;3.70;;
4885;SDS011;2457;51.788;6.136;2023-07-31T01:59:38;9.73;;;3.80;;
4885;SDS011;2457;51.788;6.136;2023-07-31T02:02:06;15.03;;;3.47;;
4885;SDS011;2457;51.788;6.136;2023-07-31T02:04:33;11.50;;;3.27;;
4885;SDS011;2457;51.788;6.136;2023-07-31T02:07:01;9.20;;;3.30;;
4885;SDS011;2457;51.788;6.136;2023-07-31T02:09:28;11.93;;;3.07;;
4885;SDS011;2457;51.788;6.136;2023-07-31T02:11:55;13.93;;;3.80;;
4885;SDS011;2457;51.788;6.136;2023-07-31T02:14:22;8.87;;;2.83;;
4885;SDS011;2457;51.788;6.136;2023-07-31T02:16:50;7.30;;;3.30;;
4885;SDS011;2457;51.788;6.136;2023-07-31T02:19:18;8.27;;;3.10;;
4885;SDS011;2457;51.788;6.136;2023-07-31T02:21:45;14.87;;;3.30;;
4885;SDS011;2457;51.788;6.136;2023-07-31T02:24:12;9.83;;;3.43;;
4885;SDS011;2457;51.788;6.136;2023-07-31T02:26:39;15.17;;;3.87;;
4885;SDS011;2457;51.788;6.136;2023-07-31T02:29:08;12.40;;;3.00;;
4885;SDS011;2457;51.788;6.136;2023-07-31T02:31:35;12.80;;;3.10;;
4885;SDS011;2457;51.788;6.136;2023-07-31T02:34:03;9.63;;;2.97;;
4885;SDS011;2457;51.788;6.136;2023-07-31T02:36:30;12.70;;;3.40;;
4885;SDS011;2457;51.788;6.136;2023-07-31T02:38:57;9.00;;;3.67;;
4885;SDS011;2457;51.788;6.136;2023-07-31T02:41:24;13.73;;;3.77;;
4885;SDS011;2457;51.788;6.136;2023-07-31T02:43:52;11.13;;;3.60;;
4885;SDS011;2457;51.788;6.136;2023-07-31T02:46:19;9.97;;;3.50;;
4885;SDS011;2457;51.788;6.136;2023-07-31T02:48:48;9.20;;;3.27;;
4885;SDS011;2457;51.788;6.136;2023-07-31T02:51:16;10.50;;;3.27;;
4885;SDS011;2457;51.788;6.136;2023-07-31T02:53:43;13.20;;;3.33;;
4885;SDS011;2457;51.788;6.136;2023-07-31T02:56:10;10.10;;;3.30;;
4885;SDS011;2457;51.788;6.136;2023-07-31T02:58:37;8.70;;;3.13;;
4885;SDS011;2457;51.788;6.136;2023-07-31T03:01:05;14.80;;;3.83;;
4885;SDS011;2457;51.788;6.136;2023-07-31T03:03:32;12.17;;;3.30;;
4885;SDS011;2457;51.788;6.136;2023-07-31T03:05:59;11.70;;;3.30;;
4885;SDS011;2457;51.788;6.136;2023-07-31T03:08:27;14.47;;;3.50;;
4885;SDS011;2457;51.788;6.136;2023-07-31T03:10:54;9.23;;;3.23;;
4885;SDS011;2457;51.788;6.136;2023-07-31T03:13:21;15.03;;;3.27;;
4885;SDS011;2457;51.788;6.136;2023-07-31T03:15:48;10.70;;;3.47;;
4885;SDS011;2457;51.788;6.136;2023-07-31T03:18:16;9.87;;;3.53;;
4885;SDS011;2457;51.788;6.136;2023-07-31T03:20:43;10.50;;;3.37;;
4885;SDS011;2457;51.788;6.136;2023-07-31T03:23:10;11.37;;;3.53;;
4885;SDS011;2457;51.788;6.136;2023-07-31T03:25:38;7.90;;;3.17;;
4885;SDS011;2457;51.788;6.136;2023-07-31T03:28:05;13.68;;;3.40;;
4885;SDS011;2457;51.788;6.136;2023-07-31T03:30:32;9.97;;;3.40;;
4885;SDS011;2457;51.788;6.136;2023-07-31T03:33:01;8.57;;;3.17;;
4885;SDS011;2457;51.788;6.136;2023-07-31T03:35:28;12.83;;;3.40;;
4885;SDS011;2457;51.788;6.136;2023-07-31T03:37:55;15.03;;;3.33;;
4885;SDS011;2457;51.788;6.136;2023-07-31T03:40:23;10.53;;;3.43;;
4885;SDS011;2457;51.788;6.136;2023-07-31T03:42:50;7.90;;;2.93;;
4885;SDS011;2457;51.788;6.136;2023-07-31T03:45:17;10.00;;;3.00;;
4885;SDS011;2457;51.788;6.136;2023-07-31T03:47:44;9.50;;;2.90;;
4885;SDS011;2457;51.788;6.136;2023-07-31T03:50:12;10.67;;;3.50;;
4885;SDS011;2457;51.788;6.136;2023-07-31T03:52:39;9.70;;;3.70;;
4885;SDS011;2457;51.788;6.136;2023-07-31T03:55:06;10.53;;;2.80;;
4885;SDS011;2457;51.788;6.136;2023-07-31T03:57:34;10.37;;;2.73;;
4885;SDS011;2457;51.788;6.136;2023-07-31T04:00:01;13.90;;;3.73;;
4885;SDS011;2457;51.788;6.136;2023-07-31T04:02:28;15.20;;;5.30;;
4885;SDS011;2457;51.788;6.136;2023-07-31T04:04:55;9.13;;;3.03;;
4885;SDS011;2457;51.788;6.136;2023-07-31T04:07:22;8.80;;;2.63;;
4885;SDS011;2457;51.788;6.136;2023-07-31T04:09:50;8.87;;;3.23;;
4885;SDS011;2457;51.788;6.136;2023-07-31T04:12:17;8.53;;;2.63;;
4885;SDS011;2457;51.788;6.136;2023-07-31T04:14:44;9.30;;;3.03;;
4885;SDS011;2457;51.788;6.136;2023-07-31T04:17:11;9.63;;;3.63;;
4885;SDS011;2457;51.788;6.136;2023-07-31T04:19:39;9.30;;;3.10;;
4885;SDS011;2457;51.788;6.136;2023-07-31T04:22:06;9.23;;;3.03;;
4885;SDS011;2457;51.788;6.136;2023-07-31T04:24:33;13.30;;;3.30;;
4885;SDS011;2457;51.788;6.136;2023-07-31T04:27:00;13.37;;;3.60;;
4885;SDS011;2457;51.788;6.136;2023-07-31T04:29:28;13.83;;;3.60;;
4885;SDS011;2457;51.788;6.136;2023-07-31T04:31:55;9.57;;;3.00;;
4885;SDS011;2457;51.788;6.136;2023-07-31T04:34:22;10.90;;;3.43;;
4885;SDS011;2457;51.788;6.136;2023-07-31T04:36:49;8.77;;;3.20;;
4885;SDS011;2457;51.788;6.136;2023-07-31T04:39:17;10.70;;;3.00;;
4885;SDS011;2457;51.788;6.136;2023-07-31T04:41:44;13.33;;;3.23;;
4885;SDS011;2457;51.788;6.136;2023-07-31T04:44:11;8.70;;;2.90;;
4885;SDS011;2457;51.788;6.136;2023-07-31T04:46:38;12.10;;;3.00;;
4885;SDS011;2457;51.788;6.136;2023-07-31T04:49:06;12.27;;;3.47;;
4885;SDS011;2457;51.788;6.136;2023-07-31T04:51:33;12.57;;;3.73;;
4885;SDS011;2457;51.788;6.136;2023-07-31T04:54:00;7.00;;;2.33;;
4885;SDS011;2457;51.788;6.136;2023-07-31T04:56:28;10.40;;;3.60;;
4885;SDS011;2457;51.788;6.136;2023-07-31T04:58:55;13.30;;;3.00;;
4885;SDS011;2457;51.788;6.136;2023-07-31T05:01:22;9.37;;;3.10;;
4885;SDS011;2457;51.788;6.136;2023-07-31T05:03:49;9.87;;;3.10;;
4885;SDS011;2457;51.788;6.136;2023-07-31T05:06:16;13.30;;;3.73;;
4885;SDS011;2457;51.788;6.136;2023-07-31T05:08:44;9.73;;;2.83;;
4885;SDS011;2457;51.788;6.136;2023-07-31T05:11:11;10.07;;;2.97;;
4885;SDS011;2457;51.788;6.136;2023-07-31T05:13:39;8.00;;;2.43;;
4885;SDS011;2457;51.788;6.136;2023-07-31T05:16:06;9.53;;;2.70;;
4885;SDS011;2457;51.788;6.136;2023-07-31T05:18:33;10.50;;;3.17;;
4885;SDS011;2457;51.788;6.136;2023-07-31T05:21:01;10.80;;;3.23;;
4885;SDS011;2457;51.788;6.136;2023-07-31T05:23:28;10.10;;;2.80;;
4885;SDS011;2457;51.788;6.136;2023-07-31T05:26:02;8.63;;;2.70;;
4885;SDS011;2457;51.788;6.136;2023-07-31T05:28:26;7.03;;;2.37;;
4885;SDS011;2457;51.788;6.136;2023-07-31T05:30:58;11.77;;;2.67;;
4885;SDS011;2457;51.788;6.136;2023-07-31T05:33:22;11.50;;;3.10;;
4885;SDS011;2457;51.788;6.136;2023-07-31T05:35:49;10.10;;;3.37;;
4885;SDS011;2457;51.788;6.136;2023-07-31T05:38:16;11.23;;;2.77;;
4885;SDS011;2457;51.788;6.136;2023-07-31T05:40:43;9.40;;;2.43;;
4885;SDS011;2457;51.788;6.136;2023-07-31T05:43:11;10.37;;;3.00;;
4885;SDS011;2457;51.788;6.136;2023-07-31T05:45:38;9.40;;;2.87;;
4885;SDS011;2457;51.788;6.136;2023-07-31T05:48:06;8.20;;;3.30;;
4885;SDS011;2457;51.788;6.136;2023-07-31T05:50:33;15.63;;;2.37;;
4885;SDS011;2457;51.788;6.136;2023-07-31T05:53:01;7.50;;;2.63;;
4885;SDS011;2457;51.788;6.136;2023-07-31T05:55:28;9.07;;;3.00;;
4885;SDS011;2457;51.788;6.136;2023-07-31T05:57:55;9.20;;;2.90;;
4885;SDS011;2457;51.788;6.136;2023-07-31T06:00:22;9.80;;;3.10;;
4885;SDS011;2457;51.788;6.136;2023-07-31T06:02:50;13.03;;;3.50;;
4885;SDS011;2457;51.788;6.136;2023-07-31T06:05:17;8.50;;;2.73;;
4885;SDS011;2457;51.788;6.136;2023-07-31T06:07:44;12.03;;;3.30;;
4885;SDS011;2457;51.788;6.136;2023-07-31T06:10:11;9.00;;;3.00;;
4885;SDS011;2457;51.788;6.136;2023-07-31T06:12:39;8.73;;;2.43;;
4885;SDS011;2457;51.788;6.136;2023-07-31T06:15:06;14.30;;;3.10;;
4885;SDS011;2457;51.788;6.136;2023-07-31T06:17:34;7.47;;;3.00;;
4885;SDS011;2457;51.788;6.136;2023-07-31T06:20:01;9.53;;;2.93;;
4885;SDS011;2457;51.788;6.136;2023-07-31T06:22:30;7.20;;;3.00;;
4885;SDS011;2457;51.788;6.136;2023-07-31T06:24:57;11.53;;;3.63;;
4885;SDS011;2457;51.788;6.136;2023-07-31T06:27:25;8.80;;;3.57;;
4885;SDS011;2457;51.788;6.136;2023-07-31T06:29:52;10.03;;;2.53;;
4885;SDS011;2457;51.788;6.136;2023-07-31T06:32:19;6.33;;;2.60;;
4885;SDS011;2457;51.788;6.136;2023-07-31T06:34:47;9.30;;;2.93;;
4885;SDS011;2457;51.788;6.136;2023-07-31T06:37:14;9.13;;;2.50;;
4885;SDS011;2457;51.788;6.136;2023-07-31T06:39:41;8.00;;;2.20;;
4885;SDS011;2457;51.788;6.136;2023-07-31T06:42:09;7.27;;;2.17;;
4885;SDS011;2457;51.788;6.136;2023-07-31T06:44:36;6.50;;;1.90;;
4885;SDS011;2457;51.788;6.136;2023-07-31T06:47:03;6.50;;;2.07;;
4885;SDS011;2457;51.788;6.136;2023-07-31T06:49:31;5.00;;;1.60;;
4885;SDS011;2457;51.788;6.136;2023-07-31T06:51:58;6.60;;;2.40;;
4885;SDS011;2457;51.788;6.136;2023-07-31T06:54:25;5.93;;;2.40;;
4885;SDS011;2457;51.788;6.136;2023-07-31T06:56:52;6.73;;;2.47;;
4885;SDS011;2457;51.788;6.136;2023-07-31T06:59:20;7.43;;;1.67;;
4885;SDS011;2457;51.788;6.136;2023-07-31T07:01:47;7.13;;;1.60;;
4885;SDS011;2457;51.788;6.136;2023-07-31T07:04:14;4.17;;;1.50;;
4885;SDS011;2457;51.788;6.136;2023-07-31T07:06:41;6.17;;;1.83;;
4885;SDS011;2457;51.788;6.136;2023-07-31T07:09:09;4.73;;;1.63;;
4885;SDS011;2457;51.788;6.136;2023-07-31T07:11:36;5.47;;;1.60;;
4885;SDS011;2457;51.788;6.136;2023-07-31T07:14:03;6.40;;;1.53;;
4885;SDS011;2457;51.788;6.136;2023-07-31T07:16:31;6.17;;;2.00;;
4885;SDS011;2457;51.788;6.136;2023-07-31T07:18:58;5.30;;;1.50;;
4885;SDS011;2457;51.788;6.136;2023-07-31T07:21:25;4.57;;;1.50;;
4885;SDS011;2457;51.788;6.136;2023-07-31T07:23:52;4.87;;;1.80;;
4885;SDS011;2457;51.788;6.136;2023-07-31T07:26:20;4.85;;;1.70;;
4885;SDS011;2457;51.788;6.136;2023-07-31T07:28:47;4.50;;;1.70;;
4885;SDS011;2457;51.788;6.136;2023-07-31T07:31:14;5.20;;;1.87;;
4885;SDS011;2457;51.788;6.136;2023-07-31T07:33:41;4.13;;;1.53;;
4885;SDS011;2457;51.788;6.136;2023-07-31T07:36:09;4.00;;;1.45;;
4885;SDS011;2457;51.788;6.136;2023-07-31T07:38:36;4.90;;;1.63;;
4885;SDS011;2457;51.788;6.136;2023-07-31T07:41:05;4.80;;;1.60;;
4885;SDS011;2457;51.788;6.136;2023-07-31T07:43:32;4.47;;;1.60;;
4885;SDS011;2457;51.788;6.136;2023-07-31T07:46:00;5.63;;;1.57;;
4885;SDS011;2457;51.788;6.136;2023-07-31T07:48:27;4.80;;;1.50;;
4885;SDS011;2457;51.788;6.136;2023-07-31T07:50:54;3.70;;;1.10;;
4885;SDS011;2457;51.788;6.136;2023-07-31T07:53:21;4.53;;;1.53;;
4885;SDS011;2457;51.788;6.136;2023-07-31T07:55:49;4.53;;;1.60;;
4885;SDS011;2457;51.788;6.136;2023-07-31T07:58:16;5.20;;;1.30;;
4885;SDS011;2457;51.788;6.136;2023-07-31T08:00:48;4.60;;;1.70;;
4885;SDS011;2457;51.788;6.136;2023-07-31T08:03:12;4.80;;;1.53;;
4885;SDS011;2457;51.788;6.136;2023-07-31T08:05:39;5.50;;;1.90;;
4885;SDS011;2457;51.788;6.136;2023-07-31T08:08:07;5.93;;;1.80;;
4885;SDS011;2457;51.788;6.136;2023-07-31T08:10:34;4.60;;;1.50;;
4885;SDS011;2457;51.788;6.136;2023-07-31T08:13:01;4.27;;;1.53;;
4885;SDS011;2457;51.788;6.136;2023-07-31T08:15:29;8.37;;;1.50;;
4885;SDS011;2457;51.788;6.136;2023-07-31T08:17:56;4.90;;;1.53;;
4885;SDS011;2457;51.788;6.136;2023-07-31T08:20:23;4.27;;;1.27;;
4885;SDS011;2457;51.788;6.136;2023-07-31T08:22:51;4.60;;;1.57;;
4885;SDS011;2457;51.788;6.136;2023-07-31T08:25:19;5.50;;;1.60;;
4885;SDS011;2457;51.788;6.136;2023-07-31T08:27:46;4.93;;;1.60;;
4885;SDS011;2457;51.788;6.136;2023-07-31T08:30:14;4.70;;;1.60;;
4885;SDS011;2457;51.788;6.136;2023-07-31T08:32:41;4.30;;;1.40;;
4885;SDS011;2457;51.788;6.136;2023-07-31T08:35:08;4.80;;;1.73;;
4885;SDS011;2457;51.788;6.136;2023-07-31T08:37:35;6.70;;;1.77;;
4885;SDS011;2457;51.788;6.136;2023-07-31T08:40:03;4.80;;;1.57;;
4885;SDS011;2457;51.788;6.136;2023-07-31T08:42:31;5.93;;;1.70;;
4885;SDS011;2457;51.788;6.136;2023-07-31T08:44:59;4.33;;;1.43;;
4885;SDS011;2457;51.788;6.136;2023-07-31T08:47:26;4.40;;;1.50;;
4885;SDS011;2457;51.788;6.136;2023-07-31T08:49:54;4.27;;;1.57;;
4885;SDS011;2457;51.788;6.136;2023-07-31T08:52:22;8.90;;;1.67;;
4885;SDS011;2457;51.788;6.136;2023-07-31T08:54:50;4.47;;;1.33;;
4885;SDS011;2457;51.788;6.136;2023-07-31T08:57:17;6.43;;;1.33;;
4885;SDS011;2457;51.788;6.136;2023-07-31T08:59:44;4.40;;;1.70;;
4885;SDS011;2457;51.788;6.136;2023-07-31T09:02:12;4.70;;;1.60;;
4885;SDS011;2457;51.788;6.136;2023-07-31T09:04:40;6.07;;;1.63;;
4885;SDS011;2457;51.788;6.136;2023-07-31T09:07:08;4.33;;;1.60;;
4885;SDS011;2457;51.788;6.136;2023-07-31T09:09:35;4.63;;;1.57;;
4885;SDS011;2457;51.788;6.136;2023-07-31T09:12:03;4.37;;;1.50;;
4885;SDS011;2457;51.788;6.136;2023-07-31T09:14:31;4.83;;;1.20;;
4885;SDS011;2457;51.788;6.136;2023-07-31T09:16:59;4.33;;;1.30;;
4885;SDS011;2457;51.788;6.136;2023-07-31T09:19:32;4.27;;;1.40;;
4885;SDS011;2457;51.788;6.136;2023-07-31T09:21:59;5.43;;;1.70;;
4885;SDS011;2457;51.788;6.136;2023-07-31T09:24:30;5.70;;;1.57;;
4885;SDS011;2457;51.788;6.136;2023-07-31T09:26:58;5.07;;;1.53;;
4885;SDS011;2457;51.788;6.136;2023-07-31T09:29:26;4.60;;;1.30;;
4885;SDS011;2457;51.788;6.136;2023-07-31T09:31:55;6.03;;;1.97;;
4885;SDS011;2457;51.788;6.136;2023-07-31T09:34:31;5.33;;;1.80;;
4885;SDS011;2457;51.788;6.136;2023-07-31T09:37:01;5.20;;;1.63;;
4885;SDS011;2457;51.788;6.136;2023-07-31T09:39:27;5.10;;;1.47;;
4885;SDS011;2457;51.788;6.136;2023-07-31T09:41:56;5.20;;;1.83;;
4885;SDS011;2457;51.788;6.136;2023-07-31T09:44:39;4.83;;;1.70;;
4885;SDS011;2457;51.788;6.136;2023-07-31T09:47:10;5.40;;;1.90;;
4885;SDS011;2457;51.788;6.136;2023-07-31T09:49:36;4.50;;;1.77;;
4885;SDS011;2457;51.788;6.136;2023-07-31T09:52:03;4.43;;;1.53;;
4885;SDS011;2457;51.788;6.136;2023-07-31T09:54:32;4.87;;;1.77;;
4885;SDS011;2457;51.788;6.136;2023-07-31T09:56:59;5.00;;;1.83;;
4885;SDS011;2457;51.788;6.136;2023-07-31T09:59:27;5.13;;;1.70;;
4885;SDS011;2457;51.788;6.136;2023-07-31T10:01:54;4.90;;;1.87;;
4885;SDS011;2457;51.788;6.136;2023-07-31T10:04:23;5.93;;;2.40;;
4885;SDS011;2457;51.788;6.136;2023-07-31T10:06:52;5.97;;;2.37;;
4885;SDS011;2457;51.788;6.136;2023-07-31T10:09:20;7.60;;;2.57;;
4885;SDS011;2457;51.788;6.136;2023-07-31T10:11:57;5.90;;;2.53;;
4885;SDS011;2457;51.788;6.136;2023-07-31T10:14:24;6.47;;;2.60;;
4885;SDS011;2457;51.788;6.136;2023-07-31T10:16:53;7.20;;;3.10;;
4885;SDS011;2457;51.788;6.136;2023-07-31T10:19:21;8.80;;;2.77;;
4885;SDS011;2457;51.788;6.136;2023-07-31T10:21:48;7.53;;;2.53;;
4885;SDS011;2457;51.788;6.136;2023-07-31T10:24:16;8.30;;;2.70;;
4885;SDS011;2457;51.788;6.136;2023-07-31T10:26:43;6.90;;;2.63;;
4885;SDS011;2457;51.788;6.136;2023-07-31T10:29:12;14.73;;;3.20;;
4885;SDS011;2457;51.788;6.136;2023-07-31T10:31:40;8.63;;;2.90;;
4885;SDS011;2457;51.788;6.136;2023-07-31T10:34:07;6.50;;;2.67;;
4885;SDS011;2457;51.788;6.136;2023-07-31T10:36:35;6.57;;;2.83;;
4885;SDS011;2457;51.788;6.136;2023-07-31T10:39:03;5.90;;;2.57;;
4885;SDS011;2457;51.788;6.136;2023-07-31T10:41:31;7.80;;;3.23;;
4885;SDS011;2457;51.788;6.136;2023-07-31T10:44:03;7.40;;;2.67;;
4885;SDS011;2457;51.788;6.136;2023-07-31T10:46:28;7.10;;;3.13;;
4885;SDS011;2457;51.788;6.136;2023-07-31T10:48:59;7.57;;;2.83;;
4885;SDS011;2457;51.788;6.136;2023-07-31T10:51:33;6.97;;;3.17;;
4885;SDS011;2457;51.788;6.136;2023-07-31T10:54:13;6.90;;;2.63;;
4885;SDS011;2457;51.788;6.136;2023-07-31T10:56:47;7.60;;;3.10;;
4885;SDS011;2457;51.788;6.136;2023-07-31T10:59:15;9.57;;;2.60;;
4885;SDS011;2457;51.788;6.136;2023-07-31T11:01:55;9.27;;;3.00;;
4885;SDS011;2457;51.788;6.136;2023-07-31T11:04:27;8.60;;;2.90;;
4885;SDS011;2457;51.788;6.136;2023-07-31T11:06:57;6.43;;;3.00;;
4885;SDS011;2457;51.788;6.136;2023-07-31T11:09:27;5.93;;;2.80;;
4885;SDS011;2457;51.788;6.136;2023-07-31T11:11:54;9.00;;;3.33;;
4885;SDS011;2457;51.788;6.136;2023-07-31T11:14:21;11.50;;;3.10;;
4885;SDS011;2457;51.788;6.136;2023-07-31T11:16:51;8.20;;;2.77;;
4885;SDS011;2457;51.788;6.136;2023-07-31T11:19:22;6.93;;;2.97;;
4885;SDS011;2457;51.788;6.136;2023-07-31T11:21:50;6.90;;;2.73;;
4885;SDS011;2457;51.788;6.136;2023-07-31T11:24:19;7.50;;;3.00;;
4885;SDS011;2457;51.788;6.136;2023-07-31T11:26:52;8.20;;;2.47;;
4885;SDS011;2457;51.788;6.136;2023-07-31T11:29:20;5.30;;;2.37;;
4885;SDS011;2457;51.788;6.136;2023-07-31T11:31:47;6.20;;;2.50;;
4885;SDS011;2457;51.788;6.136;2023-07-31T11:34:15;7.53;;;3.13;;
4885;SDS011;2457;51.788;6.136;2023-07-31T11:36:54;7.40;;;2.40;;
4885;SDS011;2457;51.788;6.136;2023-07-31T11:39:13;6.53;;;2.63;;
4885;SDS011;2457;51.788;6.136;2023-07-31T11:41:40;12.40;;;2.90;;
4885;SDS011;2457;51.788;6.136;2023-07-31T11:44:08;7.10;;;2.27;;
4885;SDS011;2457;51.788;6.136;2023-07-31T11:46:35;11.37;;;2.60;;
4885;SDS011;2457;51.788;6.136;2023-07-31T11:49:03;9.03;;;2.60;;
4885;SDS011;2457;51.788;6.136;2023-07-31T11:51:30;6.90;;;2.90;;
4885;SDS011;2457;51.788;6.136;2023-07-31T11:53:58;6.30;;;3.03;;
4885;SDS011;2457;51.788;6.136;2023-07-31T11:56:26;9.10;;;3.50;;
4885;SDS011;2457;51.788;6.136;2023-07-31T11:58:57;6.67;;;2.40;;
4885;SDS011;2457;51.788;6.136;2023-07-31T12:01:26;7.20;;;2.87;;
4885;SDS011;2457;51.788;6.136;2023-07-31T12:03:54;5.43;;;2.27;;
4885;SDS011;2457;51.788;6.136;2023-07-31T12:06:21;7.50;;;2.67;;
4885;SDS011;2457;51.788;6.136;2023-07-31T12:08:48;7.63;;;2.50;;
4885;SDS011;2457;51.788;6.136;2023-07-31T12:11:15;9.60;;;2.33;;
4885;SDS011;2457;51.788;6.136;2023-07-31T12:13:44;6.60;;;2.47;;
4885;SDS011;2457;51.788;6.136;2023-07-31T12:16:11;6.53;;;2.70;;
4885;SDS011;2457;51.788;6.136;2023-07-31T12:18:39;9.27;;;2.63;;
4885;SDS011;2457;51.788;6.136;2023-07-31T12:21:07;9.80;;;2.60;;
4885;SDS011;2457;51.788;6.136;2023-07-31T12:23:36;6.90;;;2.57;;
4885;SDS011;2457;51.788;6.136;2023-07-31T12:26:07;9.70;;;2.40;;
4885;SDS011;2457;51.788;6.136;2023-07-31T12:28:41;5.87;;;2.50;;
4885;SDS011;2457;51.788;6.136;2023-07-31T12:31:04;6.43;;;2.57;;
4885;SDS011;2457;51.788;6.136;2023-07-31T12:33:33;7.17;;;3.13;;
4885;SDS011;2457;51.788;6.136;2023-07-31T12:36:01;6.63;;;2.60;;
4885;SDS011;2457;51.788;6.136;2023-07-31T12:38:29;6.83;;;2.40;;
4885;SDS011;2457;51.788;6.136;2023-07-31T12:40:57;8.23;;;2.53;;
4885;SDS011;2457;51.788;6.136;2023-07-31T12:43:24;8.30;;;2.77;;
4885;SDS011;2457;51.788;6.136;2023-07-31T12:45:54;6.87;;;3.00;;
4885;SDS011;2457;51.788;6.136;2023-07-31T12:48:20;8.13;;;2.37;;
4885;SDS011;2457;51.788;6.136;2023-07-31T12:50:47;5.53;;;2.10;;
4885;SDS011;2457;51.788;6.136;2023-07-31T12:53:15;5.07;;;1.67;;
4885;SDS011;2457;51.788;6.136;2023-07-31T12:55:42;10.87;;;2.63;;
4885;SDS011;2457;51.788;6.136;2023-07-31T12:58:10;5.30;;;1.93;;
4885;SDS011;2457;51.788;6.136;2023-07-31T13:00:37;8.87;;;2.57;;
4885;SDS011;2457;51.788;6.136;2023-07-31T13:03:04;5.47;;;2.30;;
4885;SDS011;2457;51.788;6.136;2023-07-31T13:05:32;5.83;;;2.27;;
4885;SDS011;2457;51.788;6.136;2023-07-31T13:07:59;6.93;;;1.87;;
4885;SDS011;2457;51.788;6.136;2023-07-31T13:10:26;7.53;;;2.20;;
4885;SDS011;2457;51.788;6.136;2023-07-31T13:12:54;6.20;;;2.33;;
4885;SDS011;2457;51.788;6.136;2023-07-31T13:15:22;5.13;;;1.97;;
4885;SDS011;2457;51.788;6.136;2023-07-31T13:17:49;6.20;;;1.80;;
4885;SDS011;2457;51.788;6.136;2023-07-31T13:20:17;6.40;;;2.23;;
4885;SDS011;2457;51.788;6.136;2023-07-31T13:22:44;5.20;;;1.93;;
4885;SDS011;2457;51.788;6.136;2023-07-31T13:25:11;5.03;;;1.83;;
4885;SDS011;2457;51.788;6.136;2023-07-31T13:27:38;6.33;;;2.43;;
4885;SDS011;2457;51.788;6.136;2023-07-31T13:30:06;7.70;;;2.30;;
4885;SDS011;2457;51.788;6.136;2023-07-31T13:32:34;5.57;;;2.30;;
4885;SDS011;2457;51.788;6.136;2023-07-31T13:35:03;6.00;;;2.40;;
4885;SDS011;2457;51.788;6.136;2023-07-31T13:37:30;6.70;;;2.47;;
4885;SDS011;2457;51.788;6.136;2023-07-31T13:39:57;7.30;;;2.50;;
4885;SDS011;2457;51.788;6.136;2023-07-31T13:42:24;5.50;;;1.90;;
4885;SDS011;2457;51.788;6.136;2023-07-31T13:44:52;6.33;;;2.17;;
4885;SDS011;2457;51.788;6.136;2023-07-31T13:47:19;6.13;;;3.03;;
4885;SDS011;2457;51.788;6.136;2023-07-31T13:49:46;5.53;;;2.57;;
4885;SDS011;2457;51.788;6.136;2023-07-31T13:52:14;7.60;;;2.50;;
4885;SDS011;2457;51.788;6.136;2023-07-31T13:54:42;7.93;;;2.80;;
4885;SDS011;2457;51.788;6.136;2023-07-31T13:57:09;6.77;;;2.47;;
4885;SDS011;2457;51.788;6.136;2023-07-31T13:59:36;6.70;;;2.60;;
4885;SDS011;2457;51.788;6.136;2023-07-31T14:02:03;6.70;;;2.97;;
4885;SDS011;2457;51.788;6.136;2023-07-31T14:04:31;8.30;;;2.90;;
4885;SDS011;2457;51.788;6.136;2023-07-31T14:06:58;6.77;;;2.83;;
4885;SDS011;2457;51.788;6.136;2023-07-31T14:09:25;7.60;;;2.83;;
4885;SDS011;2457;51.788;6.136;2023-07-31T14:11:54;10.30;;;2.93;;
4885;SDS011;2457;51.788;6.136;2023-07-31T14:14:22;7.93;;;2.73;;
4885;SDS011;2457;51.788;6.136;2023-07-31T14:16:49;11.90;;;3.10;;
4885;SDS011;2457;51.788;6.136;2023-07-31T14:19:16;7.43;;;3.07;;
4885;SDS011;2457;51.788;6.136;2023-07-31T14:21:43;8.43;;;3.17;;
4885;SDS011;2457;51.788;6.136;2023-07-31T14:24:11;7.10;;;3.10;;
4885;SDS011;2457;51.788;6.136;2023-07-31T14:26:38;10.93;;;3.00;;
4885;SDS011;2457;51.788;6.136;2023-07-31T14:29:05;9.27;;;3.20;;
4885;SDS011;2457;51.788;6.136;2023-07-31T14:31:32;12.63;;;4.17;;
4885;SDS011;2457;51.788;6.136;2023-07-31T14:34:00;8.73;;;3.50;;
4885;SDS011;2457;51.788;6.136;2023-07-31T14:36:27;7.87;;;3.00;;
4885;SDS011;2457;51.788;6.136;2023-07-31T14:38:54;10.57;;;3.70;;
4885;SDS011;2457;51.788;6.136;2023-07-31T14:41:21;9.27;;;3.80;;
4885;SDS011;2457;51.788;6.136;2023-07-31T14:43:49;6.40;;;3.10;;
4885;SDS011;2457;51.788;6.136;2023-07-31T14:46:16;7.40;;;3.30;;
4885;SDS011;2457;51.788;6.136;2023-07-31T14:48:43;7.10;;;2.70;;
4885;SDS011;2457;51.788;6.136;2023-07-31T14:51:10;10.27;;;3.30;;
4885;SDS011;2457;51.788;6.136;2023-07-31T14:53:38;8.87;;;3.27;;
4885;SDS011;2457;51.788;6.136;2023-07-31T14:56:05;6.87;;;2.90;;
4885;SDS011;2457;51.788;6.136;2023-07-31T14:58:33;10.53;;;3.00;;
4885;SDS011;2457;51.788;6.136;2023-07-31T15:01:00;7.97;;;3.37;;
4885;SDS011;2457;51.788;6.136;2023-07-31T15:03:27;7.87;;;3.27;;
4885;SDS011;2457;51.788;6.136;2023-07-31T15:05:54;8.17;;;2.90;;
4885;SDS011;2457;51.788;6.136;2023-07-31T15:08:22;8.70;;;3.70;;
4885;SDS011;2457;51.788;6.136;2023-07-31T15:10:49;8.17;;;2.93;;
4885;SDS011;2457;51.788;6.136;2023-07-31T15:13:16;6.50;;;2.80;;
4885;SDS011;2457;51.788;6.136;2023-07-31T15:15:44;7.43;;;3.30;;
4885;SDS011;2457;51.788;6.136;2023-07-31T15:18:11;8.70;;;3.20;;
4885;SDS011;2457;51.788;6.136;2023-07-31T15:20:38;7.43;;;3.03;;